createdAt,value
2018-06-12T00:01:19.148Z,4.33
2018-06-12T00:03:47.797Z,5.57
2018-06-12T00:06:16.443Z,6.73
2018-06-12T00:08:45.087Z,10.13
2018-06-12T00:11:13.733Z,4.87
2018-06-12T00:13:42.459Z,7.30
2018-06-12T00:16:11.183Z,4.57
2018-06-12T00:18:40.992Z,4.57
2018-06-12T00:21:09.693Z,4.80
2018-06-12T00:23:38.409Z,4.93
2018-06-12T00:26:07.104Z,5.67
2018-06-12T00:28:35.726Z,4.03
2018-06-12T00:31:04.459Z,4.50
2018-06-12T00:33:33.032Z,6.40
2018-06-12T00:36:01.679Z,6.33
2018-06-12T00:38:30.386Z,5.97
2018-06-12T00:40:58.974Z,5.30
2018-06-12T00:43:27.661Z,7.17
2018-06-12T00:45:56.406Z,10.43
2018-06-12T00:48:25.116Z,7.70
2018-06-12T00:50:53.877Z,5.80
2018-06-12T00:53:22.648Z,4.90
2018-06-12T00:55:51.335Z,9.53
2018-06-12T00:58:20.040Z,8.40
2018-06-12T01:00:48.727Z,8.50
2018-06-12T01:03:17.339Z,9.30
2018-06-12T01:05:46.225Z,7.63
2018-06-12T01:08:14.958Z,6.00
2018-06-12T01:10:43.853Z,7.80
2018-06-12T01:13:12.547Z,7.63
2018-06-12T01:15:41.166Z,6.93
2018-06-12T01:18:09.879Z,6.83
2018-06-12T01:20:38.684Z,9.60
2018-06-12T01:23:07.358Z,6.30
2018-06-12T01:25:36.050Z,7.43
2018-06-12T01:28:04.845Z,7.30
2018-06-12T01:30:33.507Z,6.73
2018-06-12T01:33:02.199Z,7.87
2018-06-12T01:35:30.888Z,5.63
2018-06-12T01:37:59.623Z,6.87
2018-06-12T01:40:28.274Z,6.90
2018-06-12T01:42:57.016Z,6.43
2018-06-12T01:45:25.775Z,9.60
2018-06-12T01:47:54.521Z,14.37
2018-06-12T01:50:23.267Z,8.93
2018-06-12T01:52:51.975Z,9.73
2018-06-12T01:55:20.649Z,10.70
2018-06-12T01:57:49.392Z,11.57
2018-06-12T02:00:18.062Z,12.33
2018-06-12T02:02:46.680Z,7.33
2018-06-12T02:05:15.390Z,10.70
2018-06-12T02:07:44.103Z,14.20
2018-06-12T02:10:12.741Z,9.70
2018-06-12T02:12:41.385Z,8.83
2018-06-12T02:15:10.110Z,14.20
2018-06-12T02:17:38.820Z,14.53
2018-06-12T02:20:07.523Z,10.03
2018-06-12T02:22:36.156Z,8.73
2018-06-12T02:25:04.929Z,7.43
2018-06-12T02:27:33.553Z,8.63
2018-06-12T02:30:02.227Z,11.43
2018-06-12T02:32:30.944Z,10.53
2018-06-12T02:34:59.737Z,7.43
2018-06-12T02:37:28.380Z,10.10
2018-06-12T02:39:57.035Z,12.83
2018-06-12T02:42:25.882Z,7.83
2018-06-12T02:44:54.541Z,9.73
2018-06-12T02:47:23.275Z,12.93
2018-06-12T02:49:51.963Z,9.93
2018-06-12T02:52:20.774Z,11.90
2018-06-12T02:54:49.549Z,13.07
2018-06-12T02:57:18.203Z,6.93
2018-06-12T02:59:46.936Z,7.03
2018-06-12T03:02:15.546Z,12.33
2018-06-12T03:04:44.181Z,8.00
2018-06-12T03:07:12.814Z,10.43
2018-06-12T03:09:41.403Z,7.50
2018-06-12T03:12:10.037Z,8.13
2018-06-12T03:14:39.898Z,9.60
2018-06-12T03:17:08.619Z,9.37
2018-06-12T03:19:37.370Z,15.43
2018-06-12T03:22:06.056Z,9.60
2018-06-12T03:24:34.732Z,9.50
2018-06-12T03:27:03.392Z,8.33
2018-06-12T03:29:32.098Z,12.70
2018-06-12T03:32:00.782Z,10.57
2018-06-12T03:34:29.476Z,10.37
2018-06-12T03:36:58.119Z,8.97
2018-06-12T03:39:26.834Z,10.47
2018-06-12T03:41:55.529Z,9.47
2018-06-12T03:44:24.299Z,7.87
2018-06-12T03:46:52.994Z,13.33
2018-06-12T03:49:21.658Z,13.50
2018-06-12T03:51:50.415Z,14.00
2018-06-12T03:54:19.014Z,19.93
2018-06-12T03:56:47.762Z,13.63
2018-06-12T03:59:16.393Z,15.47
2018-06-12T04:01:45.014Z,23.20
2018-06-12T04:04:13.799Z,26.43
2018-06-12T04:06:42.436Z,23.27
2018-06-12T04:09:11.233Z,21.93
2018-06-12T04:11:39.983Z,16.50
2018-06-12T04:14:08.627Z,19.90
2018-06-12T04:16:37.630Z,20.10
2018-06-12T04:19:07.428Z,20.33
2018-06-12T04:21:36.462Z,20.80
2018-06-12T04:24:05.200Z,16.13
2018-06-12T04:26:33.975Z,22.57
2018-06-12T04:29:02.751Z,48.43
2018-06-12T04:31:31.439Z,62.60
2018-06-12T04:34:01.253Z,63.53
2018-06-12T04:36:29.983Z,73.97
2018-06-12T04:38:58.731Z,67.17
2018-06-12T04:41:27.552Z,62.17
2018-06-12T04:43:56.289Z,52.60
2018-06-12T04:46:24.968Z,47.13
2018-06-12T04:48:53.591Z,41.03
2018-06-12T04:51:22.231Z,38.73
2018-06-12T04:53:50.881Z,28.60
2018-06-12T04:56:19.642Z,36.37
2018-06-12T04:58:48.458Z,29.87
2018-06-12T05:01:17.963Z,32.13
2018-06-12T05:03:46.844Z,30.23
2018-06-12T05:06:15.683Z,31.43
2018-06-12T05:08:44.620Z,26.30
2018-06-12T05:11:13.392Z,25.93
2018-06-12T05:13:42.133Z,33.90
2018-06-12T05:16:10.810Z,29.70
2018-06-12T05:18:39.577Z,28.10
2018-06-12T05:21:08.275Z,27.53
2018-06-12T05:23:37.035Z,25.80
2018-06-12T05:26:05.719Z,30.73
2018-06-12T05:28:34.350Z,26.27
2018-06-12T05:31:03.279Z,35.57
2018-06-12T05:33:32.121Z,36.03
2018-06-12T05:36:00.889Z,38.00
2018-06-12T05:38:29.641Z,30.80
2018-06-12T05:40:58.341Z,32.50
2018-06-12T05:43:27.084Z,34.30
2018-06-12T05:45:55.888Z,30.53
2018-06-12T05:48:24.460Z,30.00
2018-06-12T05:50:53.073Z,34.73
2018-06-12T05:53:21.758Z,28.67
2018-06-12T05:55:50.559Z,38.10
2018-06-12T05:58:19.316Z,25.93
2018-06-12T06:00:47.939Z,37.23
2018-06-12T06:03:16.659Z,37.73
2018-06-12T06:05:45.385Z,36.20
2018-06-12T06:08:14.025Z,42.87
2018-06-12T06:10:42.790Z,40.10
2018-06-12T06:13:11.561Z,34.90
2018-06-12T06:15:40.225Z,32.00
2018-06-12T06:18:08.844Z,31.83
2018-06-12T06:20:37.594Z,30.83
2018-06-12T06:23:06.324Z,39.23
2018-06-12T06:25:35.124Z,31.67
2018-06-12T06:28:03.788Z,35.30
2018-06-12T06:30:32.482Z,36.33
2018-06-12T06:33:01.111Z,31.03
2018-06-12T06:35:29.771Z,31.47
2018-06-12T06:37:59.319Z,29.83
2018-06-12T06:40:28.049Z,32.80
2018-06-12T06:42:56.724Z,38.37
2018-06-12T06:45:25.353Z,33.63
2018-06-12T06:47:54.131Z,28.67
2018-06-12T06:50:22.893Z,33.03
2018-06-12T06:52:51.769Z,38.13
2018-06-12T06:55:20.460Z,37.33
2018-06-12T06:57:49.159Z,36.03
2018-06-12T07:00:17.821Z,36.07
2018-06-12T07:02:46.603Z,34.50
2018-06-12T07:05:15.422Z,39.83
2018-06-12T07:07:44.235Z,34.10
2018-06-12T07:10:13.065Z,35.40
2018-06-12T07:12:41.805Z,30.97
2018-06-12T07:15:10.610Z,29.50
2018-06-12T07:17:39.224Z,33.43
2018-06-12T07:20:07.938Z,30.30
2018-06-12T07:22:36.624Z,28.60
2018-06-12T07:25:05.442Z,32.87
2018-06-12T07:27:34.193Z,35.70
2018-06-12T07:30:03.012Z,26.40
2018-06-12T07:32:31.681Z,37.27
2018-06-12T07:35:00.359Z,29.70
2018-06-12T07:37:29.104Z,31.03
2018-06-12T07:39:57.658Z,32.63
2018-06-12T07:42:26.289Z,24.40
2018-06-12T07:44:55.050Z,27.83
2018-06-12T07:47:23.780Z,28.10
2018-06-12T07:49:52.543Z,23.57
2018-06-12T07:52:21.285Z,28.07
2018-06-12T07:54:50.018Z,35.13
2018-06-12T07:57:18.752Z,30.87
2018-06-12T07:59:47.557Z,21.67
2018-06-12T08:02:16.230Z,25.80
2018-06-12T08:04:44.927Z,29.80
2018-06-12T08:07:13.584Z,30.50
2018-06-12T08:09:42.279Z,24.17
2018-06-12T08:12:10.953Z,26.67
2018-06-12T08:14:39.641Z,33.00
2018-06-12T08:17:08.365Z,21.80
2018-06-12T08:19:37.019Z,18.23
2018-06-12T08:22:05.782Z,27.77
2018-06-12T08:24:34.461Z,25.20
2018-06-12T08:27:03.181Z,30.67
2018-06-12T08:29:31.878Z,23.83
2018-06-12T08:32:00.571Z,27.63
2018-06-12T08:34:29.267Z,23.40
2018-06-12T08:36:57.891Z,25.70
2018-06-12T08:39:26.549Z,25.43
2018-06-12T08:41:55.334Z,26.00
2018-06-12T08:44:24.072Z,21.57
2018-06-12T08:46:52.856Z,27.63
2018-06-12T08:49:21.519Z,23.20
2018-06-12T08:51:50.212Z,23.57
2018-06-12T08:54:18.824Z,28.93
2018-06-12T08:56:47.511Z,28.83
2018-06-12T08:59:16.238Z,33.53
2018-06-12T09:01:44.852Z,25.77
2018-06-12T09:04:13.493Z,13.50
2018-06-12T09:06:42.210Z,16.63
2018-06-12T09:09:10.933Z,19.70
2018-06-12T09:11:39.640Z,20.67
2018-06-12T09:14:08.357Z,24.27
2018-06-12T09:16:37.098Z,20.87
2018-06-12T09:19:06.138Z,17.33
2018-06-12T09:21:34.904Z,20.17
2018-06-12T09:24:03.703Z,21.83
2018-06-12T09:26:32.351Z,16.20
2018-06-12T09:29:01.040Z,19.83
2018-06-12T09:31:29.768Z,17.70
2018-06-12T09:33:58.441Z,13.67
2018-06-12T09:36:32.321Z,14.10
2018-06-12T09:39:01.053Z,20.00
2018-06-12T09:41:29.687Z,17.73
2018-06-12T09:43:58.361Z,16.43
2018-06-12T09:46:27.158Z,14.80
2018-06-12T09:48:55.881Z,19.80
2018-06-12T09:51:24.561Z,17.70
2018-06-12T09:53:53.269Z,16.13
2018-06-12T09:56:21.968Z,21.00
2018-06-12T09:58:50.650Z,24.77
2018-06-12T10:01:22.321Z,13.97
2018-06-12T10:03:53.001Z,14.70
2018-06-12T10:06:21.700Z,17.37
2018-06-12T10:08:50.958Z,19.70
2018-06-12T10:11:19.568Z,12.73
2018-06-12T10:13:48.246Z,15.20
2018-06-12T10:16:16.891Z,17.13
2018-06-12T10:18:45.671Z,13.07
2018-06-12T10:21:14.695Z,15.03
2018-06-12T10:23:43.353Z,16.70
2018-06-12T10:26:12.113Z,14.37
2018-06-12T10:28:40.948Z,15.83
2018-06-12T10:31:09.769Z,11.50
2018-06-12T10:33:38.479Z,28.53
2018-06-12T10:36:07.463Z,14.83
2018-06-12T10:38:36.146Z,12.90
2018-06-12T10:41:04.773Z,13.40
2018-06-12T10:43:33.427Z,10.57
2018-06-12T10:46:02.115Z,12.63
2018-06-12T10:48:30.856Z,9.30
2018-06-12T10:50:59.468Z,11.97
2018-06-12T10:53:28.108Z,14.13
2018-06-12T10:55:56.772Z,11.00
2018-06-12T10:58:25.559Z,11.03
2018-06-12T11:00:54.454Z,11.60
2018-06-12T11:03:23.176Z,14.63
2018-06-12T11:05:52.257Z,18.73
2018-06-12T11:08:21.014Z,14.30
2018-06-12T11:10:50.111Z,12.67
2018-06-12T11:13:19.138Z,12.57
2018-06-12T11:15:47.812Z,16.87
2018-06-12T11:18:18.493Z,23.20
2018-06-12T11:20:47.168Z,21.40
2018-06-12T11:23:17.636Z,41.90
2018-06-12T11:25:46.463Z,62.50
2018-06-12T11:28:15.255Z,36.10
2018-06-12T11:30:43.953Z,35.83
2018-06-12T11:33:12.720Z,33.87
2018-06-12T11:35:41.483Z,44.63
2018-06-12T11:38:10.141Z,33.00
2018-06-12T11:40:38.927Z,26.20
2018-06-12T11:43:07.617Z,24.60
2018-06-12T11:48:09.409Z,14.70
2018-06-12T11:50:38.149Z,19.40
2018-06-12T11:53:06.796Z,14.90
2018-06-12T11:55:35.594Z,17.37
2018-06-12T11:58:04.305Z,45.73
2018-06-12T12:00:32.975Z,39.67
2018-06-12T12:03:01.805Z,55.63
2018-06-12T12:05:30.887Z,71.90
2018-06-12T12:07:59.548Z,70.30
2018-06-12T12:10:28.371Z,61.23
2018-06-12T12:12:57.097Z,92.73
2018-06-12T12:15:25.962Z,91.13
2018-06-12T12:17:57.420Z,98.53
2018-06-12T12:20:26.362Z,65.87
2018-06-12T12:22:55.083Z,73.03
2018-06-12T12:25:24.101Z,73.80
2018-06-12T12:27:53.097Z,76.40
2018-06-12T12:30:23.399Z,93.50
2018-06-12T12:32:52.296Z,104.17
2018-06-12T12:35:21.101Z,60.87
2018-06-12T12:37:50.160Z,71.57
2018-06-12T12:40:18.924Z,62.43
2018-06-12T12:42:47.868Z,86.53
2018-06-12T12:45:17.021Z,54.03
2018-06-12T12:47:46.156Z,73.30
2018-06-12T12:50:15.213Z,61.07
2018-06-12T12:52:44.109Z,60.60
2018-06-12T12:55:13.111Z,58.90
2018-06-12T12:57:43.078Z,75.77
2018-06-12T13:00:12.288Z,59.97
2018-06-12T13:02:41.208Z,68.93
2018-06-12T13:05:09.973Z,75.27
2018-06-12T13:07:38.848Z,72.40
2018-06-12T13:10:07.727Z,65.33
2018-06-12T13:12:36.692Z,57.67
2018-06-12T13:15:05.650Z,71.90
2018-06-12T13:17:34.516Z,65.33
2018-06-12T13:20:03.251Z,59.07
2018-06-12T13:22:31.962Z,63.53
2018-06-12T13:25:00.703Z,65.13
2018-06-12T13:27:29.466Z,48.77
2018-06-12T13:29:58.335Z,41.40
2018-06-12T13:32:27.224Z,45.27
2018-06-12T13:34:56.066Z,41.30
2018-06-12T13:37:25.904Z,42.63
2018-06-12T13:39:54.840Z,45.63
2018-06-12T13:42:23.557Z,36.50
2018-06-12T13:44:52.557Z,40.60
2018-06-12T13:47:21.413Z,61.63
2018-06-12T13:49:50.212Z,51.03
2018-06-12T13:52:19.371Z,46.50
2018-06-12T14:00:46.713Z,36.37
2018-06-12T14:03:18.147Z,38.83
2018-06-12T14:05:48.777Z,38.40
2018-06-12T14:08:19.545Z,41.57
2018-06-12T14:10:49.318Z,41.83
2018-06-12T14:13:19.541Z,45.03
2018-06-12T14:15:51.198Z,41.73
2018-06-12T14:18:20.856Z,35.00
2018-06-12T14:20:52.194Z,38.13
2018-06-12T14:23:21.900Z,34.83
2018-06-12T14:25:52.531Z,34.53
2018-06-12T14:28:22.984Z,38.43
2018-06-12T14:30:52.754Z,36.27
2018-06-12T14:33:22.472Z,31.20
2018-06-12T14:35:53.357Z,29.03
2018-06-12T14:38:25.278Z,42.30
2018-06-12T14:40:55.885Z,34.47
2018-06-12T14:43:25.897Z,24.63
2018-06-12T14:45:54.861Z,30.80
2018-06-12T14:48:23.919Z,30.70
2018-06-12T14:50:52.673Z,28.27
2018-06-12T14:53:21.487Z,26.30
2018-06-12T14:55:50.347Z,31.47
2018-06-12T14:58:19.323Z,44.47
2018-06-12T15:00:48.222Z,41.03
2018-06-12T15:03:16.849Z,42.60
2018-06-12T15:05:45.552Z,23.50
2018-06-12T15:08:14.555Z,35.77
2018-06-12T15:10:43.406Z,30.30
2018-06-12T15:13:12.213Z,22.90
2018-06-12T15:15:41.045Z,27.50
2018-06-12T15:18:10.078Z,27.73
2018-06-12T15:20:38.870Z,24.50
2018-06-12T15:23:07.592Z,25.63
2018-06-12T15:25:36.427Z,18.77
2018-06-12T15:28:05.099Z,20.10
2018-06-12T15:30:33.897Z,16.90
2018-06-12T15:33:02.632Z,23.73
2018-06-12T15:35:31.405Z,19.83
2018-06-12T15:38:00.177Z,19.50
2018-06-12T15:40:28.988Z,18.40
2018-06-12T15:42:57.732Z,16.63
2018-06-12T15:45:26.582Z,19.83
2018-06-12T15:47:55.252Z,16.43
2018-06-12T15:50:24.159Z,21.83
2018-06-12T15:52:52.930Z,12.53
2018-06-12T15:55:21.662Z,15.60
2018-06-12T15:57:50.482Z,12.23
2018-06-12T16:00:19.202Z,15.63
2018-06-12T16:02:47.937Z,16.53
2018-06-12T16:05:17.086Z,11.60
2018-06-12T16:07:45.784Z,15.53
2018-06-12T16:10:14.583Z,16.03
2018-06-12T16:12:43.305Z,14.13
2018-06-12T16:15:12.166Z,19.03
2018-06-12T16:17:41.022Z,19.33
2018-06-12T16:20:09.807Z,16.63
2018-06-12T16:22:38.483Z,20.90
2018-06-12T16:25:07.231Z,16.70
2018-06-12T16:27:36.026Z,21.80
2018-06-12T16:30:04.987Z,18.73
2018-06-12T16:32:33.697Z,19.23
2018-06-12T16:35:02.594Z,12.77
2018-06-12T16:37:31.391Z,12.13
2018-06-12T16:40:00.125Z,14.60
2018-06-12T16:42:28.758Z,11.07
2018-06-12T16:44:57.461Z,10.87
2018-06-12T16:47:26.347Z,12.53
2018-06-12T16:49:55.033Z,10.00
2018-06-12T16:52:23.691Z,11.00
2018-06-12T16:54:52.400Z,11.93
2018-06-12T16:57:21.179Z,10.10
2018-06-12T16:59:49.981Z,14.43
2018-06-12T17:02:18.639Z,10.70
2018-06-12T17:04:47.289Z,12.57
2018-06-12T17:07:16.228Z,15.90
2018-06-12T17:09:45.025Z,15.07
2018-06-12T17:12:13.833Z,9.63
2018-06-12T17:14:42.748Z,13.40
2018-06-12T17:17:11.480Z,12.73
2018-06-12T17:19:40.258Z,10.47
2018-06-12T17:22:10.188Z,15.53
2018-06-12T17:24:39.120Z,10.60
2018-06-12T17:27:07.888Z,16.67
2018-06-12T17:29:36.664Z,13.57
2018-06-12T17:32:05.408Z,13.60
2018-06-12T17:34:34.015Z,13.63
2018-06-12T17:37:02.749Z,18.13
2018-06-12T17:39:31.738Z,18.00
2018-06-12T17:42:00.586Z,22.83
2018-06-12T17:44:30.276Z,11.30
2018-06-12T17:46:58.929Z,15.43
2018-06-12T17:49:27.543Z,11.47
2018-06-12T17:51:56.410Z,14.13
2018-06-12T17:54:25.095Z,11.07
2018-06-12T17:56:53.902Z,11.10
2018-06-12T17:59:22.541Z,17.13
2018-06-12T18:01:51.194Z,16.07
2018-06-12T18:04:19.897Z,18.53
2018-06-12T18:06:48.524Z,23.63
2018-06-12T18:09:17.139Z,9.20
2018-06-12T18:11:45.861Z,7.17
2018-06-12T18:14:14.618Z,12.43
2018-06-12T18:16:43.270Z,9.10
2018-06-12T18:19:11.888Z,10.57
2018-06-12T18:21:40.623Z,17.10
2018-06-12T18:24:09.287Z,13.30
2018-06-12T18:26:38.056Z,14.37
2018-06-12T18:29:06.831Z,13.40
2018-06-12T18:31:35.720Z,11.80
2018-06-12T18:34:04.555Z,21.43
2018-06-12T18:36:33.358Z,29.07
2018-06-12T18:39:02.128Z,22.27
2018-06-12T18:41:30.745Z,27.33
2018-06-12T18:43:59.378Z,24.30
2018-06-12T18:46:28.150Z,18.20
2018-06-12T18:48:57.082Z,21.10
2018-06-12T18:51:25.956Z,26.50
2018-06-12T18:53:54.670Z,27.70
2018-06-12T18:56:23.496Z,37.47
2018-06-12T18:58:52.161Z,34.60
2018-06-12T19:01:20.985Z,35.40
2018-06-12T19:03:49.695Z,38.63
2018-06-12T19:06:18.486Z,41.27
2018-06-12T19:08:47.442Z,41.00
2018-06-12T19:11:16.973Z,41.20
2018-06-12T19:13:46.779Z,39.27
2018-06-12T19:16:15.541Z,37.97
2018-06-12T19:18:44.219Z,58.13
2018-06-12T19:21:13.052Z,43.87
2018-06-12T19:23:42.096Z,43.70
2018-06-12T19:26:11.773Z,41.30
2018-06-12T19:28:40.804Z,38.53
2018-06-12T19:31:10.026Z,48.17
2018-06-12T19:33:38.904Z,35.43
2018-06-12T19:36:07.769Z,48.37
2018-06-12T19:38:36.638Z,44.83
2018-06-12T19:41:05.520Z,44.90
2018-06-12T19:43:34.244Z,39.50
2018-06-12T19:46:03.120Z,40.43
2018-06-12T19:48:32.073Z,28.13
2018-06-12T19:51:01.258Z,37.07
2018-06-12T19:53:29.970Z,32.23
2018-06-12T19:55:58.814Z,32.87
2018-06-12T19:58:27.790Z,36.00
2018-06-12T20:00:56.707Z,26.30
2018-06-12T20:03:25.720Z,32.50
2018-06-12T20:05:54.748Z,35.17
2018-06-12T20:08:23.673Z,36.40
2018-06-12T20:10:52.663Z,38.30
2018-06-12T20:13:21.557Z,40.60
2018-06-12T20:15:50.463Z,40.33
2018-06-12T20:18:19.252Z,33.73
2018-06-12T20:20:48.060Z,45.00
2018-06-12T20:23:16.748Z,36.77
2018-06-12T20:25:45.605Z,37.87
2018-06-12T20:28:14.367Z,45.23
2018-06-12T20:30:43.156Z,32.30
2018-06-12T20:33:12.071Z,36.30
2018-06-12T20:35:40.977Z,47.60
2018-06-12T20:38:09.837Z,37.40
2018-06-12T20:40:38.731Z,35.67
2018-06-12T20:43:07.710Z,41.13
2018-06-12T20:45:36.613Z,37.33
2018-06-12T20:48:05.493Z,38.17
2018-06-12T20:50:34.225Z,50.63
2018-06-12T20:53:03.022Z,38.00
2018-06-12T20:55:31.880Z,36.97
2018-06-12T20:58:00.735Z,41.43
2018-06-12T21:00:29.494Z,38.67
2018-06-12T21:02:58.246Z,39.00
2018-06-12T21:05:27.327Z,38.10
2018-06-12T21:07:56.173Z,33.80
2018-06-12T21:10:24.950Z,30.60
2018-06-12T21:12:53.839Z,27.43
2018-06-12T21:15:22.443Z,30.60
2018-06-12T21:17:51.210Z,27.43
2018-06-12T21:20:19.834Z,26.63
2018-06-12T21:22:48.473Z,25.17
2018-06-12T21:25:17.091Z,21.93
2018-06-12T21:27:45.802Z,21.50
2018-06-12T21:30:14.503Z,26.43
2018-06-12T21:32:43.173Z,22.00
2018-06-12T21:35:11.891Z,22.67
2018-06-12T21:37:40.652Z,24.53
2018-06-12T21:40:09.270Z,22.20
2018-06-12T21:42:38.021Z,20.50
2018-06-12T21:45:06.873Z,24.67
2018-06-12T21:47:35.542Z,21.67
2018-06-12T21:50:04.391Z,24.03
2018-06-12T21:52:33.098Z,21.97
2018-06-12T21:55:01.710Z,22.73
2018-06-12T21:57:30.370Z,23.30
2018-06-12T21:59:59.029Z,17.60
2018-06-12T22:02:27.832Z,21.60
2018-06-12T22:04:56.573Z,22.97
2018-06-12T22:07:25.574Z,16.33
2018-06-12T22:09:54.333Z,20.23
2018-06-12T22:12:23.246Z,18.47
2018-06-12T22:14:52.015Z,17.93
2018-06-12T22:17:20.679Z,14.27
2018-06-12T22:19:49.264Z,14.53
2018-06-12T22:22:17.989Z,14.60
2018-06-12T22:24:46.671Z,17.10
2018-06-12T22:27:15.337Z,19.60
2018-06-12T22:29:44.033Z,18.33
2018-06-12T22:32:12.668Z,19.17
2018-06-12T22:34:41.331Z,23.90
2018-06-12T22:37:10.205Z,22.33
2018-06-12T22:39:39.120Z,18.93
2018-06-12T22:42:08.005Z,21.97
2018-06-12T22:44:36.734Z,19.17
2018-06-12T22:47:05.732Z,24.00
2018-06-12T22:49:34.545Z,22.33
2018-06-12T22:52:03.254Z,26.00
2018-06-12T22:54:32.073Z,20.37
2018-06-12T22:57:00.630Z,26.27
2018-06-12T22:59:29.349Z,21.37
2018-06-12T23:01:58.029Z,24.93
2018-06-12T23:04:26.690Z,28.30
2018-06-12T23:06:55.371Z,20.90
2018-06-12T23:09:24.000Z,16.97
2018-06-12T23:11:52.743Z,19.90
2018-06-12T23:14:21.445Z,21.00
2018-06-12T23:16:50.184Z,24.47
2018-06-12T23:19:18.910Z,20.70
2018-06-12T23:22:03.058Z,22.03
2018-06-12T23:24:31.775Z,21.53
2018-06-12T23:27:00.394Z,18.60
2018-06-12T23:29:29.111Z,18.80
2018-06-12T23:31:57.766Z,15.30
2018-06-12T23:34:26.464Z,17.63
2018-06-12T23:36:55.295Z,23.43
2018-06-12T23:39:24.079Z,17.30
2018-06-12T23:41:52.799Z,15.10
2018-06-12T23:44:21.435Z,14.43
2018-06-12T23:46:50.221Z,13.93
2018-06-12T23:49:18.958Z,16.33
2018-06-12T23:51:47.837Z,21.07
2018-06-12T23:54:16.654Z,12.90
2018-06-12T23:56:45.424Z,15.63
2018-06-12T23:59:14.174Z,15.63
